Time;durP1;ratioP1;P1;durP2;ratioP2;P2;SDS_P1;SDS_P2;PMS_P1;PMS_P2;Temp;Humidity;BMP_temperature;BMP_pressure;BME280_temperature;BME280_humidity;BME280_pressure;Samples;Min_cycle;Max_cycle;Signal;HPM_P1;HPM_P2
2022/01/25 00:26:00;;;;;;;56.55;41.13;;;4.40;99.90;;;;;;4923965;28;20276;-88
2022/01/25 00:31:10;;;;;;;86.78;57.92;;;4.40;99.90;;;;;;4949348;28;20056;-89
2022/01/25 00:33:38;;;;;;;67.38;48.85;;;4.30;99.90;;;;;;4952511;28;20060;-90
2022/01/25 00:36:07;;;;;;;66.25;48.20;;;4.40;99.90;;;;;;4950825;28;20041;-89
2022/01/25 00:38:33;;;;;;;67.32;48.10;;;4.40;99.90;;;;;;4958874;28;20145;-88
2022/01/25 00:40:59;;;;;;;66.45;48.33;;;4.40;99.90;;;;;;4947494;28;20053;-89
2022/01/25 00:43:26;;;;;;;62.72;47.97;;;4.40;99.90;;;;;;4945596;28;20306;-89
2022/01/25 00:46:00;;;;;;;68.68;49.55;;;4.40;99.90;;;;;;4954513;28;20553;-90
2022/01/25 00:51:24;;;;;;;63.42;47.78;;;4.40;99.90;;;;;;4947478;28;20049;-89
2022/01/25 00:54:03;;;;;;;64.55;45.95;;;4.50;99.90;;;;;;4907898;28;20343;-89
2022/01/25 00:56:37;;;;;;;62.88;44.72;;;4.50;99.90;;;;;;4939443;28;20074;-89
2022/01/25 00:59:06;;;;;;;62.92;47.00;;;4.30;99.90;;;;;;4933191;28;20525;-90
2022/01/25 01:01:33;;;;;;;57.10;41.72;;;4.30;99.90;;;;;;4949068;28;20057;-89
2022/01/25 01:03:59;;;;;;;61.50;45.25;;;4.40;99.90;;;;;;4917535;28;20073;-89
2022/01/25 01:06:26;;;;;;;58.72;45.60;;;4.30;99.90;;;;;;4934361;28;20238;-89
2022/01/25 01:08:54;;;;;;;60.35;44.17;;;4.30;99.90;;;;;;4918170;28;20545;-89
2022/01/25 01:11:31;;;;;;;63.10;43.85;;;4.30;99.90;;;;;;4916852;28;20413;-89
2022/01/25 01:48:29;;;;;;;71.38;45.25;;;4.40;99.90;;;;;;4949188;28;20704;-92
2022/01/25 01:51:01;;;;;;;84.88;47.00;;;4.40;99.90;;;;;;4945690;28;20128;-89
2022/01/25 01:53:27;;;;;;;106.97;46.95;;;4.50;99.90;;;;;;4945106;28;20064;-88
2022/01/25 01:55:52;;;;;;;76.90;45.78;;;4.40;99.90;;;;;;4946592;28;20541;-89
2022/01/25 01:58:18;;;;;;;75.03;45.92;;;4.40;99.90;;;;;;4942545;28;20053;-89
2022/01/25 02:00:46;;;;;;;66.03;45.78;;;4.30;99.90;;;;;;4917397;28;20054;-89
2022/01/25 02:03:13;;;;;;;70.45;46.95;;;4.30;99.90;;;;;;4945225;28;20539;-87
2022/01/25 02:05:39;;;;;;;67.97;48.53;;;4.20;99.90;;;;;;4960369;28;20045;-89
2022/01/25 02:08:05;;;;;;;73.63;47.10;;;4.10;99.90;;;;;;4943609;28;20583;-89
2022/01/25 02:10:31;;;;;;;75.40;49.35;;;4.10;99.90;;;;;;4917995;28;20100;-89
2022/01/25 02:12:58;;;;;;;69.38;49.75;;;4.10;99.90;;;;;;4930284;28;20621;-89
2022/01/25 02:15:26;;;;;;;71.30;48.33;;;4.10;99.90;;;;;;4946797;28;20049;-88
2022/01/25 02:23:18;;;;;;;70.60;49.05;;;4.10;99.90;;;;;;4926002;28;20568;-89
2022/01/25 02:25:53;;;;;;;67.32;45.80;;;4.20;99.90;;;;;;4942184;28;20056;-89
2022/01/25 02:28:19;;;;;;;68.40;45.65;;;4.30;99.90;;;;;;4954135;28;20525;-88
2022/01/25 02:30:49;;;;;;;67.80;45.95;;;4.20;99.90;;;;;;4928044;28;20969;-89
2022/01/25 02:33:15;;;;;;;67.18;43.88;;;4.30;99.90;;;;;;4946817;28;20631;-90
2022/01/25 02:35:42;;;;;;;71.30;48.28;;;4.30;99.90;;;;;;4932337;28;20047;-88
2022/01/25 02:38:08;;;;;;;63.45;41.42;;;4.30;99.90;;;;;;4931381;28;20534;-89
2022/01/25 02:40:36;;;;;;;68.53;47.63;;;4.20;99.90;;;;;;4950437;28;20045;-89
2022/01/25 02:43:03;;;;;;;65.32;44.60;;;4.20;99.90;;;;;;4946666;28;20045;-89
2022/01/25 02:45:34;;;;;;;67.75;46.60;;;4.30;99.90;;;;;;4943789;28;20064;-87
2022/01/25 02:50:44;;;;;;;67.35;46.45;;;4.30;99.90;;;;;;4933261;28;20954;-89
2022/01/25 02:53:10;;;;;;;69.10;47.88;;;4.30;99.90;;;;;;4946101;28;20045;-89
2022/01/25 02:55:38;;;;;;;68.03;46.47;;;4.30;99.90;;;;;;4947744;28;20397;-88
2022/01/25 02:58:05;;;;;;;65.38;45.13;;;4.30;99.90;;;;;;4948190;28;20754;-90
2022/01/25 03:00:31;;;;;;;67.65;46.30;;;4.30;99.90;;;;;;4951694;28;20187;-90
2022/01/25 03:02:57;;;;;;;66.68;43.83;;;4.30;99.90;;;;;;4940588;28;20056;-89
2022/01/25 03:05:23;;;;;;;67.32;46.65;;;4.20;99.90;;;;;;4950493;28;20444;-87
2022/01/25 03:07:49;;;;;;;70.68;46.50;;;4.20;99.90;;;;;;4973857;28;20045;-88
2022/01/25 03:10:15;;;;;;;69.63;47.25;;;4.20;99.90;;;;;;4925594;28;20059;-89
2022/01/25 03:15:41;;;;;;;68.45;46.85;;;4.20;99.90;;;;;;4940619;28;20054;-89
2022/01/25 03:18:23;;;;;;;67.93;44.85;;;4.20;99.90;;;;;;4937543;28;20088;-90
2022/01/25 03:20:52;;;;;;;69.65;45.83;;;4.20;99.90;;;;;;4931081;28;20049;-88
2022/01/25 03:23:19;;;;;;;71.47;47.45;;;4.20;99.90;;;;;;4936941;28;20059;-89
2022/01/25 03:25:47;;;;;;;74.05;50.03;;;4.20;99.90;;;;;;4923883;28;20979;-89
2022/01/25 03:28:23;;;;;;;71.60;47.28;;;4.20;99.90;;;;;;4956269;28;20057;-89
2022/01/25 03:30:52;;;;;;;71.25;47.88;;;4.20;99.90;;;;;;4923474;28;20049;-89
2022/01/25 03:33:18;;;;;;;73.25;47.17;;;4.20;99.90;;;;;;4941296;28;20497;-90
2022/01/25 03:35:45;;;;;;;70.72;46.58;;;4.10;99.90;;;;;;4909669;28;20038;-89
2022/01/25 03:38:11;;;;;;;70.82;46.85;;;4.20;99.90;;;;;;4942770;28;20049;-89
2022/01/25 03:40:37;;;;;;;70.13;46.60;;;4.20;99.90;;;;;;4928558;28;21043;-90
2022/01/25 03:43:07;;;;;;;66.47;44.65;;;4.20;99.90;;;;;;4915326;28;20046;-89
2022/01/25 03:45:36;;;;;;;73.78;45.85;;;4.20;99.90;;;;;;4941516;28;20042;-89
2022/01/25 03:50:40;;;;;;;69.97;45.13;;;4.30;99.90;;;;;;4927427;28;20045;-89
2022/01/25 03:53:06;;;;;;;68.28;45.10;;;4.30;99.90;;;;;;4923229;28;20060;-89
2022/01/25 03:55:32;;;;;;;65.32;44.10;;;4.20;99.90;;;;;;4924686;28;20453;-89
2022/01/25 03:57:59;;;;;;;70.82;44.15;;;4.20;99.90;;;;;;4920887;28;20046;-90
2022/01/25 04:00:25;;;;;;;69.63;44.97;;;4.30;99.90;;;;;;4923485;28;20682;-89
2022/01/25 04:02:56;;;;;;;68.40;46.05;;;4.30;99.90;;;;;;4910181;28;20096;-89
2022/01/25 04:05:34;;;;;;;69.75;45.67;;;4.30;99.90;;;;;;4929826;28;20755;-89
2022/01/25 04:07:59;;;;;;;71.25;46.58;;;4.30;99.90;;;;;;4927980;28;20571;-89
2022/01/25 04:10:25;;;;;;;70.47;47.70;;;4.30;99.90;;;;;;4946260;28;20215;-89
2022/01/25 04:12:51;;;;;;;68.72;46.50;;;4.30;99.90;;;;;;4951069;28;20466;-89
2022/01/25 04:15:18;;;;;;;69.35;45.95;;;4.30;99.90;;;;;;4929819;28;20045;-89
2022/01/25 04:17:49;;;;;;;71.55;47.15;;;4.30;99.90;;;;;;4925541;28;20221;-89
2022/01/25 04:25:27;;;;;;;67.88;43.72;;;4.20;99.90;;;;;;4929756;28;20537;-89
2022/01/25 04:27:56;;;;;;;67.90;43.33;;;4.20;99.90;;;;;;4946525;28;20067;-89
2022/01/25 04:30:22;;;;;;;71.75;46.75;;;4.20;99.90;;;;;;4949109;28;20136;-89
2022/01/25 04:33:03;;;;;;;67.22;42.42;;;4.20;99.90;;;;;;4932483;28;20653;-89
2022/01/25 04:49:21;;;;;;;67.78;41.97;;;4.20;99.90;;;;;;4948689;28;20842;-89
2022/01/25 04:52:07;;;;;;;71.95;43.47;;;4.20;99.90;;;;;;4930649;28;20056;-89
2022/01/25 04:57:25;;;;;;;71.75;45.13;;;4.10;99.90;;;;;;4935445;28;20053;-89
2022/01/25 05:00:14;;;;;;;70.57;44.50;;;4.10;99.90;;;;;;4944973;28;20246;-89
2022/01/25 05:02:57;;;;;;;69.70;42.75;;;4.20;99.90;;;;;;4915616;28;20545;-89
2022/01/25 05:05:35;;;;;;;70.70;42.70;;;4.10;99.90;;;;;;4945442;28;20159;-89
2022/01/25 05:08:17;;;;;;;68.00;44.03;;;4.20;99.90;;;;;;4956340;28;20276;-89
2022/01/25 05:11:00;;;;;;;70.93;42.85;;;4.20;99.90;;;;;;4922643;28;20486;-90
2022/01/25 05:13:50;;;;;;;71.00;41.30;;;4.20;99.90;;;;;;4936347;28;20110;-89
2022/01/25 05:19:19;;;;;;;65.78;41.50;;;4.20;99.90;;;;;;4950932;28;20046;-89
2022/01/25 05:24:38;;;;;;;66.53;41.33;;;4.20;99.90;;;;;;4945856;28;20862;-89
2022/01/25 05:27:06;;;;;;;66.93;42.15;;;4.20;99.90;;;;;;4946533;28;20277;-88
2022/01/25 05:29:32;;;;;;;65.90;41.78;;;4.20;99.90;;;;;;4948968;28;20061;-88
2022/01/25 05:31:58;;;;;;;66.25;41.38;;;4.20;99.90;;;;;;4934525;28;20056;-89
2022/01/25 05:34:25;;;;;;;62.78;40.40;;;4.20;99.90;;;;;;4932713;28;20936;-89
2022/01/25 05:36:51;;;;;;;64.53;41.13;;;4.10;99.90;;;;;;4948033;28;20514;-90
2022/01/25 05:39:22;;;;;;;64.30;41.00;;;4.10;99.90;;;;;;4936068;28;20041;-89
2022/01/25 05:41:56;;;;;;;63.97;41.25;;;4.10;99.90;;;;;;4936876;28;20830;-89
2022/01/25 05:44:38;;;;;;;65.68;40.85;;;4.10;99.90;;;;;;4933080;28;20106;-90
2022/01/25 05:47:07;;;;;;;65.05;41.03;;;4.20;99.90;;;;;;4963955;28;20521;-89
2022/01/25 05:49:37;;;;;;;63.90;39.92;;;4.20;99.90;;;;;;4951571;28;20046;-89
2022/01/25 05:52:05;;;;;;;64.15;41.15;;;4.20;99.90;;;;;;4922942;28;20523;-88
2022/01/25 05:54:31;;;;;;;67.40;41.28;;;4.30;99.90;;;;;;4947700;28;20173;-89
2022/01/25 05:56:57;;;;;;;65.18;42.10;;;4.20;99.90;;;;;;4918119;28;20406;-88
2022/01/25 05:59:23;;;;;;;63.05;40.13;;;4.20;99.90;;;;;;4928246;28;20760;-89
2022/01/25 06:01:51;;;;;;;62.88;41.22;;;4.30;99.90;;;;;;4930753;28;20158;-89
2022/01/25 06:04:17;;;;;;;62.30;39.30;;;4.20;99.90;;;;;;4935836;28;20928;-88
2022/01/25 06:06:43;;;;;;;67.60;41.28;;;4.10;99.90;;;;;;4934739;28;20057;-89
2022/01/25 06:09:09;;;;;;;86.93;40.72;;;4.20;99.90;;;;;;4910631;28;20680;-86
2022/01/25 06:11:35;;;;;;;78.57;41.47;;;4.30;99.90;;;;;;4950159;28;20079;-88
2022/01/25 06:14:01;;;;;;;66.57;39.95;;;4.30;99.90;;;;;;4959767;28;20075;-89
2022/01/25 06:16:30;;;;;;;66.95;40.25;;;4.30;99.90;;;;;;4900062;28;20130;-89
2022/01/25 06:18:57;;;;;;;66.63;39.95;;;4.30;99.90;;;;;;4939681;28;20077;-88
2022/01/25 06:21:23;;;;;;;65.95;41.03;;;4.30;99.90;;;;;;4939040;28;20053;-88
2022/01/25 06:23:50;;;;;;;64.90;41.55;;;4.30;99.90;;;;;;4937055;28;20041;-88
2022/01/25 06:26:16;;;;;;;65.10;41.15;;;4.40;99.90;;;;;;4937445;28;20353;-90
2022/01/25 06:28:42;;;;;;;61.30;40.40;;;4.30;99.90;;;;;;4935933;28;20152;-89
2022/01/25 06:31:08;;;;;;;66.43;41.60;;;4.30;99.90;;;;;;4937136;28;20506;-89
2022/01/25 06:33:35;;;;;;;71.82;41.92;;;4.30;99.90;;;;;;4910612;28;20155;-89
2022/01/25 06:36:01;;;;;;;65.13;40.83;;;4.30;99.90;;;;;;4931010;28;20571;-88
2022/01/25 06:38:27;;;;;;;74.20;40.60;;;4.30;99.90;;;;;;4944756;28;20582;-88
2022/01/25 06:40:54;;;;;;;68.07;40.08;;;4.30;99.90;;;;;;4933019;28;20052;-89
2022/01/25 06:43:20;;;;;;;67.82;38.80;;;4.30;99.90;;;;;;4952105;28;20538;-88
2022/01/25 06:45:55;;;;;;;65.25;41.08;;;4.30;99.90;;;;;;4928699;28;20077;-89
2022/01/25 06:48:23;;;;;;;75.53;41.67;;;4.30;99.90;;;;;;4955911;28;20091;-89
2022/01/25 06:50:48;;;;;;;88.18;41.40;;;4.30;99.90;;;;;;4962672;28;20045;-89
2022/01/25 06:53:15;;;;;;;70.65;41.00;;;4.30;99.90;;;;;;4936285;28;20251;-89
2022/01/25 06:55:43;;;;;;;64.07;41.10;;;4.30;99.90;;;;;;4938896;28;20045;-89
2022/01/25 06:58:09;;;;;;;65.53;41.28;;;4.30;99.90;;;;;;4959152;28;20073;-88
2022/01/25 07:00:38;;;;;;;65.93;40.45;;;4.30;99.90;;;;;;4936037;28;20115;-89
2022/01/25 07:03:04;;;;;;;70.28;40.92;;;4.20;99.90;;;;;;4938863;28;20048;-87
2022/01/25 07:05:33;;;;;;;65.53;39.97;;;4.30;99.90;;;;;;4927614;28;20046;-88
2022/01/25 07:07:59;;;;;;;63.95;41.97;;;4.30;99.90;;;;;;4941340;28;20487;-88
2022/01/25 07:10:25;;;;;;;62.25;38.55;;;4.30;99.90;;;;;;4929039;28;20734;-88
2022/01/25 07:12:52;;;;;;;70.05;40.63;;;4.30;99.90;;;;;;4900987;28;20041;-88
2022/01/25 07:15:17;;;;;;;70.30;40.88;;;4.30;99.90;;;;;;4933818;28;20878;-89
2022/01/25 07:17:48;;;;;;;62.05;40.22;;;4.40;99.90;;;;;;4926853;28;20462;-90
2022/01/25 07:20:17;;;;;;;69.22;40.58;;;4.30;99.90;;;;;;4937018;28;20854;-89
2022/01/25 07:22:48;;;;;;;74.97;41.60;;;4.30;99.90;;;;;;4925481;28;20440;-88
2022/01/25 07:25:14;;;;;;;70.65;41.50;;;4.30;99.90;;;;;;4942810;28;20546;-89
2022/01/25 07:27:41;;;;;;;95.78;41.97;;;4.40;99.90;;;;;;4928981;28;20557;-89
2022/01/25 07:30:08;;;;;;;77.13;41.05;;;4.30;99.90;;;;;;4925939;28;20053;-87
2022/01/25 07:32:33;;;;;;;79.53;42.25;;;4.30;99.90;;;;;;4937035;28;20053;-89
2022/01/25 07:34:59;;;;;;;70.57;41.33;;;4.30;99.90;;;;;;4944923;28;20053;-88
2022/01/25 07:37:34;;;;;;;72.55;40.45;;;4.30;99.90;;;;;;4927244;28;20503;-89
2022/01/25 07:40:00;;;;;;;69.72;41.33;;;4.30;99.90;;;;;;4932786;28;20140;-89
2022/01/25 07:42:29;;;;;;;64.18;39.00;;;4.30;99.90;;;;;;4935369;28;20109;-90
2022/01/25 07:45:07;;;;;;;80.57;42.58;;;4.20;99.90;;;;;;4920043;28;20049;-94
2022/01/25 07:47:37;;;;;;;72.57;41.70;;;4.30;99.90;;;;;;4943120;28;20037;-92
2022/01/25 07:50:05;;;;;;;69.68;38.45;;;4.30;99.90;;;;;;4932258;28;20514;-89
2022/01/25 07:52:31;;;;;;;65.97;39.70;;;4.30;99.90;;;;;;4943004;28;20069;-88
2022/01/25 07:54:56;;;;;;;66.03;40.10;;;4.40;99.90;;;;;;4948378;28;20573;-86
2022/01/25 07:57:22;;;;;;;89.72;42.28;;;4.30;99.90;;;;;;4963905;28;20080;-88
2022/01/25 07:59:48;;;;;;;67.95;40.00;;;4.30;99.90;;;;;;4927855;28;20049;-88
2022/01/25 08:02:18;;;;;;;76.25;40.92;;;4.30;99.90;;;;;;4926283;28;20557;-89
2022/01/25 08:04:45;;;;;;;65.25;40.72;;;4.30;99.90;;;;;;4942564;28;20099;-88
2022/01/25 08:07:12;;;;;;;80.55;41.97;;;4.40;99.90;;;;;;4949159;28;20052;-90
2022/01/25 08:09:38;;;;;;;64.45;41.08;;;4.30;99.90;;;;;;4959923;28;20037;-87
2022/01/25 08:12:04;;;;;;;67.55;36.08;;;4.30;99.90;;;;;;4927916;28;20111;-88
2022/01/25 08:14:31;;;;;;;68.82;39.47;;;4.30;99.90;;;;;;4901711;28;20081;-90
2022/01/25 08:16:57;;;;;;;70.20;39.25;;;4.30;99.90;;;;;;4940122;28;20041;-88
2022/01/25 08:19:23;;;;;;;77.75;41.65;;;4.40;99.90;;;;;;4958591;28;20256;-87
2022/01/25 08:21:49;;;;;;;83.25;41.13;;;4.40;99.90;;;;;;4969081;28;20713;-88
2022/01/25 08:24:18;;;;;;;72.15;40.97;;;4.40;99.90;;;;;;4932261;28;20674;-88
2022/01/25 08:26:45;;;;;;;70.20;39.15;;;4.40;99.90;;;;;;4938107;28;20041;-88
2022/01/25 08:29:11;;;;;;;71.78;40.22;;;4.30;99.90;;;;;;4952902;28;20142;-89
2022/01/25 08:31:39;;;;;;;63.55;39.88;;;4.40;99.90;;;;;;4953243;28;20048;-89
2022/01/25 08:34:11;;;;;;;66.55;41.15;;;4.40;99.90;;;;;;4922230;28;20052;-90
2022/01/25 08:36:40;;;;;;;77.35;41.70;;;4.40;99.90;;;;;;4949895;28;20748;-89
2022/01/25 08:39:07;;;;;;;72.45;41.38;;;4.40;99.90;;;;;;4936943;28;20674;-89
2022/01/25 08:41:33;;;;;;;66.38;40.22;;;4.40;99.90;;;;;;4948562;28;20053;-89
2022/01/25 08:43:59;;;;;;;67.47;40.25;;;4.40;99.90;;;;;;4931201;28;20045;-89
2022/01/25 08:46:26;;;;;;;70.00;41.42;;;4.40;99.90;;;;;;4934373;28;20239;-89
2022/01/25 08:48:52;;;;;;;70.10;39.90;;;4.40;99.90;;;;;;4937821;28;20076;-87
2022/01/25 08:51:18;;;;;;;77.13;42.15;;;4.50;99.90;;;;;;4918191;28;20128;-89
2022/01/25 08:53:48;;;;;;;73.13;44.25;;;4.50;99.90;;;;;;4933480;28;20107;-90
2022/01/25 08:56:16;;;;;;;67.65;42.42;;;4.50;99.90;;;;;;4915004;28;20045;-89
2022/01/25 08:58:42;;;;;;;74.28;42.08;;;4.60;99.90;;;;;;4924498;28;20129;-90
2022/01/25 09:01:08;;;;;;;67.25;41.05;;;4.60;99.90;;;;;;4937683;28;20052;-89
2022/01/25 09:03:34;;;;;;;69.45;42.15;;;4.60;99.90;;;;;;4940307;28;20347;-89
2022/01/25 09:06:00;;;;;;;66.90;40.60;;;4.50;99.90;;;;;;4934874;28;20540;-88
2022/01/25 09:08:28;;;;;;;70.70;42.35;;;4.50;99.90;;;;;;4952490;28;20847;-88
2022/01/25 09:10:58;;;;;;;69.97;41.42;;;4.50;99.90;;;;;;4901220;28;20052;-89
2022/01/25 09:13:25;;;;;;;67.07;42.05;;;4.60;99.90;;;;;;4943207;28;20037;-88
2022/01/25 09:15:51;;;;;;;67.05;39.83;;;4.50;99.90;;;;;;4951694;28;20744;-89
2022/01/25 09:18:17;;;;;;;69.65;41.85;;;4.60;99.90;;;;;;4934787;28;20052;-90
2022/01/25 09:20:43;;;;;;;68.65;42.03;;;4.50;99.90;;;;;;4935217;28;20047;-89
2022/01/25 09:23:09;;;;;;;72.30;41.83;;;4.60;99.90;;;;;;4912958;28;20204;-89
2022/01/25 09:25:37;;;;;;;69.78;41.42;;;4.60;99.90;;;;;;4926675;28;20519;-89
2022/01/25 09:28:06;;;;;;;71.22;41.00;;;4.60;99.90;;;;;;4909278;28;20155;-88
2022/01/25 09:30:31;;;;;;;69.00;41.75;;;4.60;99.90;;;;;;4914208;28;20415;-89
2022/01/25 09:32:58;;;;;;;70.80;42.65;;;4.60;99.90;;;;;;5003840;28;20047;-90
2022/01/25 09:35:26;;;;;;;72.18;44.97;;;4.60;99.90;;;;;;4944222;28;20045;-89
2022/01/25 09:37:55;;;;;;;67.97;41.22;;;4.60;99.90;;;;;;4929033;28;20045;-89
2022/01/25 09:40:21;;;;;;;68.30;41.05;;;4.60;99.90;;;;;;4962560;28;20045;-90
2022/01/25 09:42:51;;;;;;;68.57;41.00;;;4.60;99.90;;;;;;4925474;28;20052;-89
2022/01/25 09:45:18;;;;;;;73.55;42.97;;;4.60;99.90;;;;;;4951176;28;20046;-89
2022/01/25 09:47:45;;;;;;;71.30;42.58;;;4.60;99.90;;;;;;4962027;28;20045;-90
2022/01/25 09:50:11;;;;;;;70.13;41.97;;;4.60;99.90;;;;;;4954975;28;20373;-89
2022/01/25 09:52:40;;;;;;;71.75;42.13;;;4.60;99.90;;;;;;4954600;28;20471;-91
2022/01/25 09:55:11;;;;;;;71.07;42.45;;;4.60;99.90;;;;;;4933694;28;20045;-89
2022/01/25 09:57:37;;;;;;;69.50;41.13;;;4.60;99.90;;;;;;4944057;28;20047;-90
2022/01/25 10:00:05;;;;;;;68.95;40.60;;;4.60;99.90;;;;;;4963356;28;20266;-89
2022/01/25 10:02:47;;;;;;;66.68;41.22;;;4.60;99.90;;;;;;4948321;28;20975;-88
2022/01/25 10:05:17;;;;;;;69.55;42.28;;;4.70;99.90;;;;;;4961570;28;20410;-90
2022/01/25 10:08:14;;;;;;;62.90;39.72;;;4.60;99.90;;;;;;4946049;28;20109;-89
2022/01/25 10:10:46;;;;;;;67.90;41.15;;;4.70;99.90;;;;;;4943706;28;20137;-89
2022/01/25 10:13:16;;;;;;;67.95;40.03;;;4.70;99.90;;;;;;5013846;28;20048;-88
2022/01/25 10:15:44;;;;;;;66.47;38.30;;;4.70;99.90;;;;;;5016784;28;20049;-87
2022/01/25 10:18:10;;;;;;;70.65;40.10;;;4.70;99.90;;;;;;5001576;28;20059;-88
2022/01/25 10:20:42;;;;;;;73.75;42.08;;;4.70;99.90;;;;;;5001286;28;20132;-89
2022/01/25 10:23:31;;;;;;;68.47;39.80;;;4.70;99.90;;;;;;5016082;28;20053;-87
2022/01/25 10:26:02;;;;;;;63.75;34.55;;;4.80;99.90;;;;;;5015640;28;20042;-89
2022/01/25 10:28:29;;;;;;;64.60;38.47;;;4.80;99.90;;;;;;4998231;28;20136;-89
2022/01/25 10:31:06;;;;;;;66.95;38.33;;;4.70;99.90;;;;;;5013844;28;20068;-88
2022/01/25 10:33:39;;;;;;;65.28;37.67;;;4.80;99.90;;;;;;4982797;28;20110;-87
2022/01/25 10:36:17;;;;;;;64.15;37.83;;;4.70;99.90;;;;;;5015561;28;20080;-89
2022/01/25 10:38:45;;;;;;;71.88;42.60;;;4.70;99.90;;;;;;4996094;28;20096;-86
2022/01/25 10:41:14;;;;;;;67.15;38.65;;;4.70;99.90;;;;;;5014068;28;20053;-86
2022/01/25 10:43:42;;;;;;;65.90;38.45;;;4.70;99.90;;;;;;5014860;28;20097;-87
2022/01/25 10:46:23;;;;;;;66.28;40.42;;;4.70;99.90;;;;;;5015566;28;20067;-89
2022/01/25 10:48:52;;;;;;;66.57;39.08;;;4.70;99.90;;;;;;5015052;28;20618;-87
2022/01/25 10:51:28;;;;;;;67.47;41.13;;;4.70;99.90;;;;;;5014822;28;20095;-89
2022/01/25 10:54:04;;;;;;;67.45;40.15;;;4.70;99.90;;;;;;5015301;28;20049;-88
2022/01/25 10:56:53;;;;;;;72.88;42.08;;;4.80;99.90;;;;;;4999058;28;20053;-89
2022/01/25 10:59:29;;;;;;;68.07;40.70;;;4.80;99.90;;;;;;5013271;28;20041;-90
2022/01/25 11:01:58;;;;;;;67.40;38.65;;;4.80;99.90;;;;;;5013704;28;20088;-89
2022/01/25 11:04:34;;;;;;;68.00;41.70;;;4.80;99.90;;;;;;4998054;28;20045;-90
2022/01/25 11:07:10;;;;;;;68.97;40.45;;;4.80;99.90;;;;;;5014905;28;20054;-89
2022/01/25 11:09:43;;;;;;;70.70;40.95;;;4.80;99.90;;;;;;4994899;28;20045;-87
2022/01/25 11:12:17;;;;;;;70.20;42.10;;;4.80;99.90;;;;;;4997647;28;20049;-87
2022/01/25 11:14:58;;;;;;;;;;;4.80;99.90;;;;;;5014613;28;20148;-88
2022/01/25 11:17:27;;;;;;;68.80;36.05;;;4.80;99.90;;;;;;5015008;28;20512;-90
2022/01/25 11:19:55;;;;;;;68.80;40.47;;;4.80;99.90;;;;;;4998244;28;20049;-88
2022/01/25 11:22:21;;;;;;;73.13;41.10;;;4.80;99.90;;;;;;5014996;28;20053;-88
2022/01/25 11:24:52;;;;;;;69.93;42.80;;;4.80;99.90;;;;;;4982207;28;20049;-90
2022/01/25 11:27:19;;;;;;;72.85;40.20;;;4.80;99.90;;;;;;5012594;28;20045;-89
2022/01/25 11:29:51;;;;;;;75.95;43.58;;;4.80;99.90;;;;;;4949361;28;20059;-89
2022/01/25 11:32:22;;;;;;;71.43;38.97;;;4.90;99.90;;;;;;4964922;28;20060;-89
2022/01/25 11:34:50;;;;;;;72.78;41.42;;;4.80;99.90;;;;;;4945712;28;20048;-90
2022/01/25 11:37:18;;;;;;;74.95;42.03;;;4.80;99.90;;;;;;4938475;28;20838;-89
2022/01/25 11:39:49;;;;;;;75.93;43.25;;;4.90;99.90;;;;;;4913891;28;20561;-89
2022/01/25 11:42:23;;;;;;;70.75;41.97;;;4.90;99.90;;;;;;4946770;28;20060;-89
2022/01/25 11:44:58;;;;;;;73.57;41.67;;;4.90;99.90;;;;;;4945490;28;20409;-87
2022/01/25 11:47:35;;;;;;;74.53;41.80;;;4.90;99.90;;;;;;4927801;28;20355;-88
2022/01/25 11:50:08;;;;;;;71.78;40.60;;;4.90;99.90;;;;;;4949871;28;20372;-89
2022/01/25 11:52:36;;;;;;;71.03;37.42;;;5.00;99.90;;;;;;4947580;28;20125;-86
2022/01/25 11:55:20;;;;;;;71.70;39.72;;;5.00;99.90;;;;;;4933528;28;20474;-86
2022/01/25 11:57:58;;;;;;;72.05;41.47;;;4.90;99.90;;;;;;4938529;28;20060;-86
2022/01/25 12:00:46;;;;;;;67.05;38.92;;;4.90;99.90;;;;;;4940250;28;20052;-89
2022/01/25 12:03:44;;;;;;;71.25;42.53;;;5.00;99.90;;;;;;4943898;28;20099;-88
2022/01/25 12:06:27;;;;;;;72.10;41.05;;;4.90;99.90;;;;;;4931485;28;20049;-89
2022/01/25 12:09:07;;;;;;;70.63;39.40;;;4.90;99.90;;;;;;4938551;28;20049;-88
2022/01/25 12:11:48;;;;;;;69.47;41.40;;;5.00;99.90;;;;;;4952834;28;20045;-91
2022/01/25 12:14:24;;;;;;;72.50;39.85;;;5.00;99.90;;;;;;4949633;28;20061;-90
2022/01/25 12:16:57;;;;;;;66.30;35.08;;;4.90;99.90;;;;;;4964333;28;20573;-89
2022/01/25 12:19:44;;;;;;;;;;;4.90;99.90;;;;;;4958641;28;20263;-89
2022/01/25 12:22:35;;;;;;;70.30;37.38;;;5.00;99.90;;;;;;4966541;28;20464;-89
2022/01/25 12:25:15;;;;;;;66.55;34.78;;;5.00;99.90;;;;;;4936707;28;20046;-89
2022/01/25 12:27:53;;;;;;;69.03;37.33;;;4.90;99.90;;;;;;4952287;28;20073;-89
2022/01/25 12:30:26;;;;;;;73.40;41.13;;;5.00;99.90;;;;;;4940177;28;20053;-87
2022/01/25 12:33:01;;;;;;;74.40;41.60;;;4.90;99.90;;;;;;4938614;28;20045;-92
2022/01/25 12:35:33;;;;;;;71.13;41.38;;;4.90;99.90;;;;;;4917698;28;20049;-91
2022/01/25 12:38:10;;;;;;;67.35;38.70;;;4.90;99.90;;;;;;4919128;28;20054;-89
2022/01/25 12:40:39;;;;;;;70.95;38.78;;;4.90;99.90;;;;;;4930086;28;20068;-88
2022/01/25 12:43:43;;;;;;;70.97;38.20;;;4.90;99.90;;;;;;4939090;28;20533;-90
2022/01/25 12:46:34;;;;;;;67.43;35.70;;;4.90;99.90;;;;;;4944223;28;20495;-89
2022/01/25 12:49:11;;;;;;;73.68;39.42;;;5.00;99.90;;;;;;4942391;28;20099;-94
2022/01/25 12:51:39;;;;;;;74.93;40.78;;;5.00;99.90;;;;;;4946103;28;20085;-89
2022/01/25 12:54:07;;;;;;;68.15;40.75;;;5.00;99.90;;;;;;4943703;28;20053;-89
2022/01/25 12:56:39;;;;;;;73.95;41.00;;;5.00;99.90;;;;;;4925427;28;20064;-90
2022/01/25 12:59:08;;;;;;;70.63;40.20;;;5.10;99.90;;;;;;4956365;28;20487;-88
2022/01/25 13:01:40;;;;;;;70.18;38.33;;;5.10;99.90;;;;;;4939577;28;20053;-89
2022/01/25 13:04:08;;;;;;;71.78;38.33;;;5.10;99.90;;;;;;4945516;28;20494;-88
2022/01/25 13:06:41;;;;;;;71.97;38.55;;;5.10;99.90;;;;;;4934906;28;20120;-90
2022/01/25 13:09:22;;;;;;;68.85;40.25;;;5.00;99.90;;;;;;4950592;28;20124;-92
2022/01/25 13:17:01;;;;;;;67.50;39.40;;;5.00;99.90;;;;;;4939330;28;20535;-87
2022/01/25 13:19:34;;;;;;;68.82;39.55;;;5.00;99.90;;;;;;4934939;28;20049;-88
2022/01/25 13:22:06;;;;;;;68.90;39.97;;;5.00;99.90;;;;;;4955128;28;20050;-89
2022/01/25 13:24:38;;;;;;;68.00;40.88;;;5.10;99.90;;;;;;4945997;28;20380;-90
2022/01/25 13:27:11;;;;;;;65.63;38.45;;;5.00;99.90;;;;;;4943025;28;20042;-88
2022/01/25 13:32:50;;;;;;;67.80;41.72;;;5.00;99.90;;;;;;4996954;28;20057;-90
2022/01/25 13:35:29;;;;;;;66.60;39.22;;;5.00;99.90;;;;;;4962091;28;20051;-87
2022/01/25 13:38:09;;;;;;;65.05;40.17;;;4.90;99.90;;;;;;4945191;28;20568;-88
2022/01/25 13:40:48;;;;;;;68.35;39.60;;;4.90;99.90;;;;;;4977071;28;20489;-91
2022/01/25 13:46:10;;;;;;;65.95;37.22;;;5.00;99.90;;;;;;4975581;28;20060;-88
2022/01/25 13:48:37;;;;;;;66.10;35.47;;;4.90;99.90;;;;;;4974490;28;20042;-89
2022/01/25 13:51:06;;;;;;;65.90;38.35;;;4.90;99.90;;;;;;4959638;28;20046;-90
2022/01/25 13:53:33;;;;;;;69.30;39.92;;;4.90;99.90;;;;;;4958483;28;20056;-89
2022/01/25 13:56:01;;;;;;;66.28;40.53;;;4.90;99.90;;;;;;4955426;28;20041;-87
2022/01/25 13:58:40;;;;;;;68.70;39.25;;;5.10;99.90;;;;;;4968258;28;20060;-91
2022/01/25 14:01:09;;;;;;;63.05;38.75;;;5.00;99.90;;;;;;4948148;28;20041;-89
2022/01/25 14:03:41;;;;;;;67.65;39.60;;;5.00;99.90;;;;;;4940123;28;20045;-87
2022/01/25 14:06:35;;;;;;;64.55;37.80;;;5.00;99.90;;;;;;4941472;28;20458;-89
2022/01/25 14:09:22;;;;;;;67.57;38.78;;;5.00;99.90;;;;;;4926895;28;20516;-89
2022/01/25 14:21:39;;;;;;;66.60;37.38;;;5.00;99.90;;;;;;4960588;28;20465;-91
2022/01/25 14:25:47;;;;;;;63.45;36.22;;;4.90;99.90;;;;;;4986545;28;20571;-90
2022/01/25 14:28:25;;;;;;;64.43;33.03;;;4.90;99.90;;;;;;4918997;28;20053;-87
2022/01/25 14:30:54;;;;;;;61.17;37.22;;;4.90;99.90;;;;;;4913802;28;20120;-89
2022/01/25 14:33:33;;;;;;;69.40;37.80;;;4.80;99.90;;;;;;4928948;28;20628;-88
2022/01/25 14:36:01;;;;;;;65.63;35.22;;;4.90;99.90;;;;;;4934556;28;20049;-87
2022/01/25 14:38:34;;;;;;;68.93;36.85;;;4.90;99.90;;;;;;4940069;28;20871;-90
2022/01/25 14:41:14;;;;;;;64.40;36.85;;;4.90;99.90;;;;;;4937750;28;20049;-90
2022/01/25 14:43:46;;;;;;;68.97;38.67;;;4.90;99.90;;;;;;4916814;28;20050;-88
2022/01/25 14:46:15;;;;;;;65.25;37.33;;;4.90;99.90;;;;;;4934938;28;20081;-90
2022/01/25 14:49:03;;;;;;;59.50;34.55;;;4.90;99.90;;;;;;4929410;28;20060;-88
2022/01/25 14:51:41;;;;;;;61.30;33.47;;;4.80;99.90;;;;;;4934082;28;20418;-88
2022/01/25 14:54:12;;;;;;;68.18;36.88;;;4.80;99.90;;;;;;4931393;28;20050;-89
2022/01/25 14:56:54;;;;;;;64.95;36.50;;;4.80;99.90;;;;;;4926156;28;20535;-88
2022/01/25 14:59:28;;;;;;;61.35;36.15;;;4.80;99.90;;;;;;4946227;28;20418;-92
2022/01/25 15:02:09;;;;;;;63.47;35.50;;;4.80;99.90;;;;;;4917035;28;20153;-86
2022/01/25 15:04:41;;;;;;;62.88;33.83;;;4.80;99.90;;;;;;4924530;28;20483;-87